Aviation Digital Data Service (ADDS)

Output produced by METARs form (1233 UTC 16 July 2019)
found at http://www.aviationweather.gov/metar/data/
 
METAR text: UUDL 161200Z 01002MPS 320V040 CAVOK 22/10 Q1011 R23/010060 NOSIG RMK QFE750
Conditions at: UUDL (YAROSLAV , RU) observed 1200 UTC 16 July 2019
Temperature: 22.0°C (72°F)
Dewpoint: 10.0°C (50°F) [RH = 46%]
Pressure (altimeter): 29.85 inches Hg (1011.0 mb)
Winds: from the N (10 degrees) at 5 MPH (4 knots; 2.1 m/s)
Visibility: 6 or more miles (10+ km)
Ceiling: ceiling and visibility are OK
Clouds: unknown
Weather: no significant weather observed at this time

METAR text: UUDL 161130Z 08002MPS CAVOK 21/10 Q1011 R23/010060 NOSIG RMK QFE750
Conditions at: UUDL (YAROSLAV , RU) observed 1130 UTC 16 July 2019
Temperature: 21.0°C (70°F)
Dewpoint: 10.0°C (50°F) [RH = 49%]
Pressure (altimeter): 29.85 inches Hg (1011.0 mb)
Winds: from the E (80 degrees) at 5 MPH (4 knots; 2.1 m/s)
Visibility: 6 or more miles (10+ km)
Ceiling: ceiling and visibility are OK
Clouds: unknown
Weather: no significant weather observed at this time

METAR text: UUDL 161100Z 35002MPS 290V050 CAVOK 21/11 Q1011 R23/010060 NOSIG RMK QFE750
Conditions at: UUDL (YAROSLAV , RU) observed 1100 UTC 16 July 2019
Temperature: 21.0°C (70°F)
Dewpoint: 11.0°C (52°F) [RH = 53%]
Pressure (altimeter): 29.85 inches Hg (1011.0 mb)
Winds: from the N (350 degrees) at 5 MPH (4 knots; 2.1 m/s)
Visibility: 6 or more miles (10+ km)
Ceiling: ceiling and visibility are OK
Clouds: unknown
Weather: no significant weather observed at this time

METAR text: UUDL 161030Z 04001MPS CAVOK 22/11 Q1011 R23/010060 NOSIG RMK QFE750
Conditions at: UUDL (YAROSLAV , RU) observed 1030 UTC 16 July 2019
Temperature: 22.0°C (72°F)
Dewpoint: 11.0°C (52°F) [RH = 50%]
Pressure (altimeter): 29.85 inches Hg (1011.0 mb)
Winds: from the NE (40 degrees) at 2 MPH (2 knots; 1.0 m/s)
Visibility: 6 or more miles (10+ km)
Ceiling: ceiling and visibility are OK
Clouds: unknown
Weather: no significant weather observed at this time

METAR text: UUDL 161000Z 13001MPS CAVOK 21/11 Q1012 R23/010060 NOSIG RMK QFE751
Conditions at: UUDL (YAROSLAV , RU) observed 1000 UTC 16 July 2019
Temperature: 21.0°C (70°F)
Dewpoint: 11.0°C (52°F) [RH = 53%]
Pressure (altimeter): 29.88 inches Hg (1012.0 mb)
Winds: from the SE (130 degrees) at 2 MPH (2 knots; 1.0 m/s)
Visibility: 6 or more miles (10+ km)
Ceiling: ceiling and visibility are OK
Clouds: unknown
Weather: no significant weather observed at this time

METAR text: UUDL 160930Z 36002MPS 320V050 CAVOK 21/10 Q1012 R23/010060 NOSIG RMK QFE750
Conditions at: UUDL (YAROSLAV , RU) observed 0930 UTC 16 July 2019
Temperature: 21.0°C (70°F)
Dewpoint: 10.0°C (50°F) [RH = 49%]
Pressure (altimeter): 29.88 inches Hg (1012.0 mb)
Winds: from the N (360 degrees) at 5 MPH (4 knots; 2.1 m/s)
Visibility: 6 or more miles (10+ km)
Ceiling: ceiling and visibility are OK
Clouds: unknown
Weather: no significant weather observed at this time

METAR text: UUDL 160900Z 32002MPS CAVOK 21/11 Q1012 R23/010060 NOSIG RMK QFE750
Conditions at: UUDL (YAROSLAV , RU) observed 0900 UTC 16 July 2019
Temperature: 21.0°C (70°F)
Dewpoint: 11.0°C (52°F) [RH = 53%]
Pressure (altimeter): 29.88 inches Hg (1012.0 mb)
Winds: from the NW (320 degrees) at 5 MPH (4 knots; 2.1 m/s)
Visibility: 6 or more miles (10+ km)
Ceiling: ceiling and visibility are OK
Clouds: unknown
Weather: no significant weather observed at this time

METAR text: UUDL 160830Z 33002MPS CAVOK 20/11 Q1012 R23/010060 NOSIG RMK QFE750
Conditions at: UUDL (YAROSLAV , RU) observed 0830 UTC 16 July 2019
Temperature: 20.0°C (68°F)
Dewpoint: 11.0°C (52°F) [RH = 56%]
Pressure (altimeter): 29.88 inches Hg (1012.0 mb)
Winds: from the NNW (330 degrees) at 5 MPH (4 knots; 2.1 m/s)
Visibility: 6 or more miles (10+ km)
Ceiling: ceiling and visibility are OK
Clouds: unknown
Weather: no significant weather observed at this time

METAR text: UUDL 160800Z 32002MPS 290V360 CAVOK 20/10 Q1012 R23/010060 NOSIG RMK QFE751
Conditions at: UUDL (YAROSLAV , RU) observed 0800 UTC 16 July 2019
Temperature: 20.0°C (68°F)
Dewpoint: 10.0°C (50°F) [RH = 53%]
Pressure (altimeter): 29.88 inches Hg (1012.0 mb)
Winds: from the NW (320 degrees) at 5 MPH (4 knots; 2.1 m/s)
Visibility: 6 or more miles (10+ km)
Ceiling: ceiling and visibility are OK
Clouds: unknown
Weather: no significant weather observed at this time

METAR text: UUDL 160730Z 32003MPS CAVOK 19/11 Q1012 R23/010060 NOSIG RMK QFE751
Conditions at: UUDL (YAROSLAV , RU) observed 0730 UTC 16 July 2019
Temperature: 19.0°C (66°F)
Dewpoint: 11.0°C (52°F) [RH = 60%]
Pressure (altimeter): 29.88 inches Hg (1012.0 mb)
Winds: from the NW (320 degrees) at 7 MPH (6 knots; 3.1 m/s)
Visibility: 6 or more miles (10+ km)
Ceiling: ceiling and visibility are OK
Clouds: unknown
Weather: no significant weather observed at this time

METAR text: UUDL 160700Z 34002MPS 300V030 CAVOK 19/11 Q1012 R23/010060 NOSIG RMK QFE751
Conditions at: UUDL (YAROSLAV , RU) observed 0700 UTC 16 July 2019
Temperature: 19.0°C (66°F)
Dewpoint: 11.0°C (52°F) [RH = 60%]
Pressure (altimeter): 29.88 inches Hg (1012.0 mb)
Winds: from the NNW (340 degrees) at 5 MPH (4 knots; 2.1 m/s)
Visibility: 6 or more miles (10+ km)
Ceiling: ceiling and visibility are OK
Clouds: unknown
Weather: no significant weather observed at this time

METAR text: UUDL 160630Z 34001MPS CAVOK 19/11 Q1012 R23/010060 NOSIG RMK QFE751
Conditions at: UUDL (YAROSLAV , RU) observed 0630 UTC 16 July 2019
Temperature: 19.0°C (66°F)
Dewpoint: 11.0°C (52°F) [RH = 60%]
Pressure (altimeter): 29.88 inches Hg (1012.0 mb)
Winds: from the NNW (340 degrees) at 2 MPH (2 knots; 1.0 m/s)
Visibility: 6 or more miles (10+ km)
Ceiling: ceiling and visibility are OK
Clouds: unknown
Weather: no significant weather observed at this time

METAR text: UUDL 160600Z 05001MPS CAVOK 18/11 Q1012 R23/010060 NOSIG RMK QFE751
Conditions at: UUDL (YAROSLAV , RU) observed 0600 UTC 16 July 2019
Temperature: 18.0°C (64°F)
Dewpoint: 11.0°C (52°F) [RH = 64%]
Pressure (altimeter): 29.88 inches Hg (1012.0 mb)
Winds: from the NE (50 degrees) at 2 MPH (2 knots; 1.0 m/s)
Visibility: 6 or more miles (10+ km)
Ceiling: ceiling and visibility are OK
Clouds: unknown
Weather: no significant weather observed at this time

METAR text: UUDL 160530Z 02001MPS CAVOK 17/11 Q1012 R23/010060 NOSIG RMK QFE751
Conditions at: UUDL (YAROSLAV , RU) observed 0530 UTC 16 July 2019
Temperature: 17.0°C (63°F)
Dewpoint: 11.0°C (52°F) [RH = 68%]
Pressure (altimeter): 29.88 inches Hg (1012.0 mb)
Winds: from the NNE (20 degrees) at 2 MPH (2 knots; 1.0 m/s)
Visibility: 6 or more miles (10+ km)
Ceiling: ceiling and visibility are OK
Clouds: unknown
Weather: no significant weather observed at this time

METAR text: UUDL 160500Z 00000MPS CAVOK 17/11 Q1012 R23/010060 NOSIG RMK QFE751
Conditions at: UUDL (YAROSLAV , RU) observed 0500 UTC 16 July 2019
Temperature: 17.0°C (63°F)
Dewpoint: 11.0°C (52°F) [RH = 68%]
Pressure (altimeter): 29.88 inches Hg (1012.0 mb)
Winds: calm
Visibility: 6 or more miles (10+ km)
Ceiling: ceiling and visibility are OK
Clouds: unknown
Weather: no significant weather observed at this time

METAR text: UUDL 160430Z 00000MPS CAVOK 16/11 Q1012 R23/010060 NOSIG RMK QFE751
Conditions at: UUDL (YAROSLAV , RU) observed 0430 UTC 16 July 2019
Temperature: 16.0°C (61°F)
Dewpoint: 11.0°C (52°F) [RH = 72%]
Pressure (altimeter): 29.88 inches Hg (1012.0 mb)
Winds: calm
Visibility: 6 or more miles (10+ km)
Ceiling: ceiling and visibility are OK
Clouds: unknown
Weather: no significant weather observed at this time

METAR text: UUDL 160400Z 00000MPS CAVOK 14/13 Q1012 R23/190055 NOSIG RMK QFE751
Conditions at: UUDL (YAROSLAV , RU) observed 0400 UTC 16 July 2019
Temperature: 14.0°C (57°F)
Dewpoint: 13.0°C (55°F) [RH = 94%]
Pressure (altimeter): 29.88 inches Hg (1012.0 mb)
Winds: calm
Visibility: 6 or more miles (10+ km)
Ceiling: ceiling and visibility are OK
Clouds: unknown
Weather: no significant weather observed at this time

METAR text: UUDL 160330Z 00000MPS 0300 R23/0550N FG VV002 12/12 Q1012 R23/190055 NOSIG RMK QBB060 QFE751
Conditions at: UUDL (YAROSLAV , RU) observed 0330 UTC 16 July 2019
Temperature: 12.0°C (54°F)
Dewpoint: 12.0°C (54°F) [RH = 100%]
Pressure (altimeter): 29.88 inches Hg (1012.0 mb)
Winds: calm
Visibility: 0.19 miles (0.31 km)
Ceiling: indefinite ceiling with vertical visibility of 200 feet AGL
Clouds: obscured sky
Weather: FG  (fog)

METAR text: UUDL 160300Z 00000MPS 0300 R23/0550N FG VV002 11/11 Q1012 R23/190055 NOSIG RMK QBB060 QFE751
Conditions at: UUDL (YAROSLAV , RU) observed 0300 UTC 16 July 2019
Temperature: 11.0°C (52°F)
Dewpoint: 11.0°C (52°F) [RH = 100%]
Pressure (altimeter): 29.88 inches Hg (1012.0 mb)
Winds: calm
Visibility: 0.19 miles (0.31 km)
Ceiling: indefinite ceiling with vertical visibility of 200 feet AGL
Clouds: obscured sky
Weather: FG  (fog)

METAR text: UUDL 160230Z 00000MPS 0500 R23/0800N FG VV002 10/10 Q1012 R23/190055 NOSIG RMK QBB060 QFE750
Conditions at: UUDL (YAROSLAV , RU) observed 0230 UTC 16 July 2019
Temperature: 10.0°C (50°F)
Dewpoint: 10.0°C (50°F) [RH = 100%]
Pressure (altimeter): 29.88 inches Hg (1012.0 mb)
Winds: calm
Visibility: 0.31 miles (0.50 km)
Ceiling: indefinite ceiling with vertical visibility of 200 feet AGL
Clouds: obscured sky
Weather: FG  (fog)

METAR text: UUDL 160200Z 00000MPS 0500 R23/0800N FG VV003 10/10 Q1012 R23/190055 NOSIG RMK QBB090 QFE750
Conditions at: UUDL (YAROSLAV , RU) observed 0200 UTC 16 July 2019
Temperature: 10.0°C (50°F)
Dewpoint: 10.0°C (50°F) [RH = 100%]
Pressure (altimeter): 29.88 inches Hg (1012.0 mb)
Winds: calm
Visibility: 0.31 miles (0.50 km)
Ceiling: indefinite ceiling with vertical visibility of 300 feet AGL
Clouds: obscured sky
Weather: FG  (fog)

METAR text: UUDL 160130Z 21001MPS CAVOK 09/09 Q1011 R23/190055 NOSIG RMK QFE750
Conditions at: UUDL (YAROSLAV , RU) observed 0130 UTC 16 July 2019
Temperature: 9.0°C (48°F)
Dewpoint: 9.0°C (48°F) [RH = 100%]
Pressure (altimeter): 29.85 inches Hg (1011.0 mb)
Winds: from the SSW (210 degrees) at 2 MPH (2 knots; 1.0 m/s)
Visibility: 6 or more miles (10+ km)
Ceiling: ceiling and visibility are OK
Clouds: unknown
Weather: no significant weather observed at this time

METAR text: UUDL 160100Z 00000MPS CAVOK 09/09 Q1011 R23/190055 NOSIG RMK QFE750
Conditions at: UUDL (YAROSLAV , RU) observed 0100 UTC 16 July 2019
Temperature: 9.0°C (48°F)
Dewpoint: 9.0°C (48°F) [RH = 100%]
Pressure (altimeter): 29.85 inches Hg (1011.0 mb)
Winds: calm
Visibility: 6 or more miles (10+ km)
Ceiling: ceiling and visibility are OK
Clouds: unknown
Weather: no significant weather observed at this time

METAR text: UUDL 160030Z 00000MPS CAVOK 09/09 Q1011 R23/190055 NOSIG RMK QFE750
Conditions at: UUDL (YAROSLAV , RU) observed 0030 UTC 16 July 2019
Temperature: 9.0°C (48°F)
Dewpoint: 9.0°C (48°F) [RH = 100%]
Pressure (altimeter): 29.85 inches Hg (1011.0 mb)
Winds: calm
Visibility: 6 or more miles (10+ km)
Ceiling: ceiling and visibility are OK
Clouds: unknown
Weather: no significant weather observed at this time

METAR text: UUDL 160000Z 00000MPS CAVOK 09/09 Q1011 R23/190055 NOSIG RMK QFE750
Conditions at: UUDL (YAROSLAV , RU) observed 0000 UTC 16 July 2019
Temperature: 9.0°C (48°F)
Dewpoint: 9.0°C (48°F) [RH = 100%]
Pressure (altimeter): 29.85 inches Hg (1011.0 mb)
Winds: calm
Visibility: 6 or more miles (10+ km)
Ceiling: ceiling and visibility are OK
Clouds: unknown
Weather: no significant weather observed at this time

METAR text: UUDL 152330Z 23001MPS CAVOK 10/10 Q1011 R23/190055 NOSIG RMK QFE750
Conditions at: UUDL (YAROSLAV , RU) observed 2330 UTC 15 July 2019
Temperature: 10.0°C (50°F)
Dewpoint: 10.0°C (50°F) [RH = 100%]
Pressure (altimeter): 29.85 inches Hg (1011.0 mb)
Winds: from the SW (230 degrees) at 2 MPH (2 knots; 1.0 m/s)
Visibility: 6 or more miles (10+ km)
Ceiling: ceiling and visibility are OK
Clouds: unknown
Weather: no significant weather observed at this time

METAR text: UUDL 152300Z 00000MPS CAVOK 10/10 Q1011 R23/190055 NOSIG RMK QFE750
Conditions at: UUDL (YAROSLAV , RU) observed 2300 UTC 15 July 2019
Temperature: 10.0°C (50°F)
Dewpoint: 10.0°C (50°F) [RH = 100%]
Pressure (altimeter): 29.85 inches Hg (1011.0 mb)
Winds: calm
Visibility: 6 or more miles (10+ km)
Ceiling: ceiling and visibility are OK
Clouds: unknown
Weather: no significant weather observed at this time

METAR text: UUDL 152230Z 00000MPS CAVOK 10/10 Q1011 R23/190055 NOSIG RMK QFE750
Conditions at: UUDL (YAROSLAV , RU) observed 2230 UTC 15 July 2019
Temperature: 10.0°C (50°F)
Dewpoint: 10.0°C (50°F) [RH = 100%]
Pressure (altimeter): 29.85 inches Hg (1011.0 mb)
Winds: calm
Visibility: 6 or more miles (10+ km)
Ceiling: ceiling and visibility are OK
Clouds: unknown
Weather: no significant weather observed at this time

METAR text: UUDL 152200Z 00000MPS CAVOK 11/11 Q1011 R23/190055 NOSIG RMK QFE750
Conditions at: UUDL (YAROSLAV , RU) observed 2200 UTC 15 July 2019
Temperature: 11.0°C (52°F)
Dewpoint: 11.0°C (52°F) [RH = 100%]
Pressure (altimeter): 29.85 inches Hg (1011.0 mb)
Winds: calm
Visibility: 6 or more miles (10+ km)
Ceiling: ceiling and visibility are OK
Clouds: unknown
Weather: no significant weather observed at this time

METAR text: UUDL 152130Z 00000MPS CAVOK 12/12 Q1011 R23/190055 NOSIG RMK QFE750
Conditions at: UUDL (YAROSLAV , RU) observed 2130 UTC 15 July 2019
Temperature: 12.0°C (54°F)
Dewpoint: 12.0°C (54°F) [RH = 100%]
Pressure (altimeter): 29.85 inches Hg (1011.0 mb)
Winds: calm
Visibility: 6 or more miles (10+ km)
Ceiling: ceiling and visibility are OK
Clouds: unknown
Weather: no significant weather observed at this time

METAR text: UUDL 152100Z 21001MPS CAVOK 12/12 Q1011 R23/190055 NOSIG RMK QFE750
Conditions at: UUDL (YAROSLAV , RU) observed 2100 UTC 15 July 2019
Temperature: 12.0°C (54°F)
Dewpoint: 12.0°C (54°F) [RH = 100%]
Pressure (altimeter): 29.85 inches Hg (1011.0 mb)
Winds: from the SSW (210 degrees) at 2 MPH (2 knots; 1.0 m/s)
Visibility: 6 or more miles (10+ km)
Ceiling: ceiling and visibility are OK
Clouds: unknown
Weather: no significant weather observed at this time

METAR text: UUDL 152030Z 00000MPS CAVOK 13/12 Q1010 R23/190055 NOSIG RMK QFE750
Conditions at: UUDL (YAROSLAV , RU) observed 2030 UTC 15 July 2019
Temperature: 13.0°C (55°F)
Dewpoint: 12.0°C (54°F) [RH = 94%]
Pressure (altimeter): 29.82 inches Hg (1010.0 mb)
Winds: calm
Visibility: 6 or more miles (10+ km)
Ceiling: ceiling and visibility are OK
Clouds: unknown
Weather: no significant weather observed at this time

METAR text: UUDL 152000Z 24001MPS CAVOK 14/12 Q1011 R23/190055 NOSIG RMK QFE750
Conditions at: UUDL (YAROSLAV , RU) observed 2000 UTC 15 July 2019
Temperature: 14.0°C (57°F)
Dewpoint: 12.0°C (54°F) [RH = 88%]
Pressure (altimeter): 29.85 inches Hg (1011.0 mb)
Winds: from the WSW (240 degrees) at 2 MPH (2 knots; 1.0 m/s)
Visibility: 6 or more miles (10+ km)
Ceiling: ceiling and visibility are OK
Clouds: unknown
Weather: no significant weather observed at this time

METAR text: UUDL 151930Z 27002MPS CAVOK 13/12 Q1011 R23/190055 NOSIG RMK QFE750
Conditions at: UUDL (YAROSLAV , RU) observed 1930 UTC 15 July 2019
Temperature: 13.0°C (55°F)
Dewpoint: 12.0°C (54°F) [RH = 94%]
Pressure (altimeter): 29.85 inches Hg (1011.0 mb)
Winds: from the W (270 degrees) at 5 MPH (4 knots; 2.1 m/s)
Visibility: 6 or more miles (10+ km)
Ceiling: ceiling and visibility are OK
Clouds: unknown
Weather: no significant weather observed at this time

METAR text: UUDL 151900Z 24002MPS CAVOK 14/12 Q1011 R23/190055 NOSIG RMK QFE750
Conditions at: UUDL (YAROSLAV , RU) observed 1900 UTC 15 July 2019
Temperature: 14.0°C (57°F)
Dewpoint: 12.0°C (54°F) [RH = 88%]
Pressure (altimeter): 29.85 inches Hg (1011.0 mb)
Winds: from the WSW (240 degrees) at 5 MPH (4 knots; 2.1 m/s)
Visibility: 6 or more miles (10+ km)
Ceiling: ceiling and visibility are OK
Clouds: unknown
Weather: no significant weather observed at this time

METAR text: UUDL 151830Z 23003MPS CAVOK 16/12 Q1011 R23/190055 NOSIG RMK QFE750
Conditions at: UUDL (YAROSLAV , RU) observed 1830 UTC 15 July 2019
Temperature: 16.0°C (61°F)
Dewpoint: 12.0°C (54°F) [RH = 77%]
Pressure (altimeter): 29.85 inches Hg (1011.0 mb)
Winds: from the SW (230 degrees) at 7 MPH (6 knots; 3.1 m/s)
Visibility: 6 or more miles (10+ km)
Ceiling: ceiling and visibility are OK
Clouds: unknown
Weather: no significant weather observed at this time

METAR text: UUDL 151800Z 00000MPS CAVOK 16/13 Q1011 R23/190055 NOSIG RMK QFE750
Conditions at: UUDL (YAROSLAV , RU) observed 1800 UTC 15 July 2019
Temperature: 16.0°C (61°F)
Dewpoint: 13.0°C (55°F) [RH = 82%]
Pressure (altimeter): 29.85 inches Hg (1011.0 mb)
Winds: calm
Visibility: 6 or more miles (10+ km)
Ceiling: ceiling and visibility are OK
Clouds: unknown
Weather: no significant weather observed at this time

METAR text: UUDL 151730Z 00000MPS CAVOK 17/12 Q1011 R23/190055 NOSIG RMK QFE750
Conditions at: UUDL (YAROSLAV , RU) observed 1730 UTC 15 July 2019
Temperature: 17.0°C (63°F)
Dewpoint: 12.0°C (54°F) [RH = 72%]
Pressure (altimeter): 29.85 inches Hg (1011.0 mb)
Winds: calm
Visibility: 6 or more miles (10+ km)
Ceiling: ceiling and visibility are OK
Clouds: unknown
Weather: no significant weather observed at this time

METAR text: UUDL 151700Z 15002MPS CAVOK 17/12 Q1011 R23/190055 NOSIG RMK QFE750
Conditions at: UUDL (YAROSLAV , RU) observed 1700 UTC 15 July 2019
Temperature: 17.0°C (63°F)
Dewpoint: 12.0°C (54°F) [RH = 72%]
Pressure (altimeter): 29.85 inches Hg (1011.0 mb)
Winds: from the SSE (150 degrees) at 5 MPH (4 knots; 2.1 m/s)
Visibility: 6 or more miles (10+ km)
Ceiling: ceiling and visibility are OK
Clouds: unknown
Weather: no significant weather observed at this time

METAR text: UUDL 151630Z 09001MPS CAVOK 18/12 Q1011 R23/190055 NOSIG RMK QFE750
Conditions at: UUDL (YAROSLAV , RU) observed 1630 UTC 15 July 2019
Temperature: 18.0°C (64°F)
Dewpoint: 12.0°C (54°F) [RH = 68%]
Pressure (altimeter): 29.85 inches Hg (1011.0 mb)
Winds: from the E (90 degrees) at 2 MPH (2 knots; 1.0 m/s)
Visibility: 6 or more miles (10+ km)
Ceiling: ceiling and visibility are OK
Clouds: unknown
Weather: no significant weather observed at this time

METAR text: UUDL 151600Z 04002MPS CAVOK 18/12 Q1010 R23/190055 NOSIG RMK QFE750
Conditions at: UUDL (YAROSLAV , RU) observed 1600 UTC 15 July 2019
Temperature: 18.0°C (64°F)
Dewpoint: 12.0°C (54°F) [RH = 68%]
Pressure (altimeter): 29.82 inches Hg (1010.0 mb)
Winds: from the NE (40 degrees) at 5 MPH (4 knots; 2.1 m/s)
Visibility: 6 or more miles (10+ km)
Ceiling: ceiling and visibility are OK
Clouds: unknown
Weather: no significant weather observed at this time

METAR text: UUDL 151530Z 02003MPS CAVOK 18/12 Q1010 R23/190055 NOSIG RMK QFE750
Conditions at: UUDL (YAROSLAV , RU) observed 1530 UTC 15 July 2019
Temperature: 18.0°C (64°F)
Dewpoint: 12.0°C (54°F) [RH = 68%]
Pressure (altimeter): 29.82 inches Hg (1010.0 mb)
Winds: from the NNE (20 degrees) at 7 MPH (6 knots; 3.1 m/s)
Visibility: 6 or more miles (10+ km)
Ceiling: ceiling and visibility are OK
Clouds: unknown
Weather: no significant weather observed at this time

METAR text: UUDL 151500Z 01003MPS CAVOK 19/11 Q1010 R23/190055 NOSIG RMK QFE749
Conditions at: UUDL (YAROSLAV , RU) observed 1500 UTC 15 July 2019
Temperature: 19.0°C (66°F)
Dewpoint: 11.0°C (52°F) [RH = 60%]
Pressure (altimeter): 29.82 inches Hg (1010.0 mb)
Winds: from the N (10 degrees) at 7 MPH (6 knots; 3.1 m/s)
Visibility: 6 or more miles (10+ km)
Ceiling: ceiling and visibility are OK
Clouds: unknown
Weather: no significant weather observed at this time

METAR text: UUDL 151430Z 06002MPS CAVOK 20/11 Q1010 R23/190055 NOSIG RMK QFE749
Conditions at: UUDL (YAROSLAV , RU) observed 1430 UTC 15 July 2019
Temperature: 20.0°C (68°F)
Dewpoint: 11.0°C (52°F) [RH = 56%]
Pressure (altimeter): 29.82 inches Hg (1010.0 mb)
Winds: from the ENE (60 degrees) at 5 MPH (4 knots; 2.1 m/s)
Visibility: 6 or more miles (10+ km)
Ceiling: ceiling and visibility are OK
Clouds: unknown
Weather: no significant weather observed at this time

METAR text: UUDL 151400Z 05003MPS CAVOK 19/11 Q1010 R23/190055 NOSIG RMK QFE749
Conditions at: UUDL (YAROSLAV , RU) observed 1400 UTC 15 July 2019
Temperature: 19.0°C (66°F)
Dewpoint: 11.0°C (52°F) [RH = 60%]
Pressure (altimeter): 29.82 inches Hg (1010.0 mb)
Winds: from the NE (50 degrees) at 7 MPH (6 knots; 3.1 m/s)
Visibility: 6 or more miles (10+ km)
Ceiling: ceiling and visibility are OK
Clouds: unknown
Weather: no significant weather observed at this time

METAR text: UUDL 151330Z 05003MPS 9999 BKN040CB 18/11 Q1010 R23/190055 NOSIG RMK QFE749
Conditions at: UUDL (YAROSLAV , RU) observed 1330 UTC 15 July 2019
Temperature: 18.0°C (64°F)
Dewpoint: 11.0°C (52°F) [RH = 64%]
Pressure (altimeter): 29.82 inches Hg (1010.0 mb)
Winds: from the NE (50 degrees) at 7 MPH (6 knots; 3.1 m/s)
Visibility: 6 or more miles (10+ km)
Ceiling: 4000 feet AGL
Clouds: broken clouds at 4000 feet AGL
Weather: no significant weather observed at this time

METAR text: UUDL 151300Z 03003MPS 9999 BKN040CB 19/11 Q1010 R23/190055 NOSIG RMK QFE749
Conditions at: UUDL (YAROSLAV , RU) observed 1300 UTC 15 July 2019
Temperature: 19.0°C (66°F)
Dewpoint: 11.0°C (52°F) [RH = 60%]
Pressure (altimeter): 29.82 inches Hg (1010.0 mb)
Winds: from the NNE (30 degrees) at 7 MPH (6 knots; 3.1 m/s)
Visibility: 6 or more miles (10+ km)
Ceiling: 4000 feet AGL
Clouds: broken clouds at 4000 feet AGL
Weather: no significant weather observed at this time

METAR text: UUDL 151230Z 30003MPS 9999 -SHRA BKN040CB 19/12 Q1010 R23/010060 NOSIG RMK QFE749
Conditions at: UUDL (YAROSLAV , RU) observed 1230 UTC 15 July 2019
Temperature: 19.0°C (66°F)
Dewpoint: 12.0°C (54°F) [RH = 64%]
Pressure (altimeter): 29.82 inches Hg (1010.0 mb)
Winds: from the WNW (300 degrees) at 7 MPH (6 knots; 3.1 m/s)
Visibility: 6 or more miles (10+ km)
Ceiling: 4000 feet AGL
Clouds: broken clouds at 4000 feet AGL
Weather: -SHRA  (light rain showers)

METAR text: UUDL 151200Z 28003MPS CAVOK 19/10 Q1010 R23/010060 NOSIG RMK QFE749
Conditions at: UUDL (YAROSLAV , RU) observed 1200 UTC 15 July 2019
Temperature: 19.0°C (66°F)
Dewpoint: 10.0°C (50°F) [RH = 56%]
Pressure (altimeter): 29.82 inches Hg (1010.0 mb)
Winds: from the W (280 degrees) at 7 MPH (6 knots; 3.1 m/s)
Visibility: 6 or more miles (10+ km)
Ceiling: ceiling and visibility are OK
Clouds: unknown
Weather: no significant weather observed at this time

METAR text: UUDL 151130Z 28002MPS 250V330 CAVOK 20/10 Q1010 R23/010060 NOSIG RMK QFE749
Conditions at: UUDL (YAROSLAV , RU) observed 1130 UTC 15 July 2019
Temperature: 20.0°C (68°F)
Dewpoint: 10.0°C (50°F) [RH = 53%]
Pressure (altimeter): 29.82 inches Hg (1010.0 mb)
Winds: from the W (280 degrees) at 5 MPH (4 knots; 2.1 m/s)
Visibility: 6 or more miles (10+ km)
Ceiling: ceiling and visibility are OK
Clouds: unknown
Weather: no significant weather observed at this time

METAR text: UUDL 151100Z 25003MPS CAVOK 20/09 Q1010 R23/010060 NOSIG RMK QFE749
Conditions at: UUDL (YAROSLAV , RU) observed 1100 UTC 15 July 2019
Temperature: 20.0°C (68°F)
Dewpoint: 9.0°C (48°F) [RH = 49%]
Pressure (altimeter): 29.82 inches Hg (1010.0 mb)
Winds: from the WSW (250 degrees) at 7 MPH (6 knots; 3.1 m/s)
Visibility: 6 or more miles (10+ km)
Ceiling: ceiling and visibility are OK
Clouds: unknown
Weather: no significant weather observed at this time

METAR text: UUDL 151030Z 26003MPS CAVOK 21/07 Q1010 R23/010060 NOSIG RMK QFE749
Conditions at: UUDL (YAROSLAV , RU) observed 1030 UTC 15 July 2019
Temperature: 21.0°C (70°F)
Dewpoint: 7.0°C (45°F) [RH = 40%]
Pressure (altimeter): 29.82 inches Hg (1010.0 mb)
Winds: from the W (260 degrees) at 7 MPH (6 knots; 3.1 m/s)
Visibility: 6 or more miles (10+ km)
Ceiling: ceiling and visibility are OK
Clouds: unknown
Weather: no significant weather observed at this time

METAR text: UUDL 151000Z 30001MPS CAVOK 21/09 Q1010 R23/010060 NOSIG RMK QFE749
Conditions at: UUDL (YAROSLAV , RU) observed 1000 UTC 15 July 2019
Temperature: 21.0°C (70°F)
Dewpoint: 9.0°C (48°F) [RH = 46%]
Pressure (altimeter): 29.82 inches Hg (1010.0 mb)
Winds: from the WNW (300 degrees) at 2 MPH (2 knots; 1.0 m/s)
Visibility: 6 or more miles (10+ km)
Ceiling: ceiling and visibility are OK
Clouds: unknown
Weather: no significant weather observed at this time

METAR text: UUDL 150930Z 25004MPS CAVOK 19/09 Q1010 R23/010060 NOSIG RMK QFE749
Conditions at: UUDL (YAROSLAV , RU) observed 0930 UTC 15 July 2019
Temperature: 19.0°C (66°F)
Dewpoint: 9.0°C (48°F) [RH = 52%]
Pressure (altimeter): 29.82 inches Hg (1010.0 mb)
Winds: from the WSW (250 degrees) at 9 MPH (8 knots; 4.1 m/s)
Visibility: 6 or more miles (10+ km)
Ceiling: ceiling and visibility are OK
Clouds: unknown
Weather: no significant weather observed at this time

METAR text: UUDL 150900Z 26003MPS CAVOK 20/09 Q1010 R23/010060 NOSIG RMK QFE749
Conditions at: UUDL (YAROSLAV , RU) observed 0900 UTC 15 July 2019
Temperature: 20.0°C (68°F)
Dewpoint: 9.0°C (48°F) [RH = 49%]
Pressure (altimeter): 29.82 inches Hg (1010.0 mb)
Winds: from the W (260 degrees) at 7 MPH (6 knots; 3.1 m/s)
Visibility: 6 or more miles (10+ km)
Ceiling: ceiling and visibility are OK
Clouds: unknown
Weather: no significant weather observed at this time

METAR text: UUDL 150830Z 30002MPS 250V330 9999 SCT040 19/10 Q1010 R23/010060 NOSIG RMK QFE749
Conditions at: UUDL (YAROSLAV , RU) observed 0830 UTC 15 July 2019
Temperature: 19.0°C (66°F)
Dewpoint: 10.0°C (50°F) [RH = 56%]
Pressure (altimeter): 29.82 inches Hg (1010.0 mb)
Winds: from the WNW (300 degrees) at 5 MPH (4 knots; 2.1 m/s)
Visibility: 6 or more miles (10+ km)
Ceiling: at least 12,000 feet AGL
Clouds: scattered clouds at 4000 feet AGL
Weather: no significant weather observed at this time

METAR text: UUDL 150800Z 25003MPS 9999 SCT040 20/08 Q1010 R23/010060 NOSIG RMK QFE749
Conditions at: UUDL (YAROSLAV , RU) observed 0800 UTC 15 July 2019
Temperature: 20.0°C (68°F)
Dewpoint: 8.0°C (46°F) [RH = 46%]
Pressure (altimeter): 29.82 inches Hg (1010.0 mb)
Winds: from the WSW (250 degrees) at 7 MPH (6 knots; 3.1 m/s)
Visibility: 6 or more miles (10+ km)
Ceiling: at least 12,000 feet AGL
Clouds: scattered clouds at 4000 feet AGL
Weather: no significant weather observed at this time

METAR text: UUDL 150730Z 27003MPS 220V310 9999 FEW040 19/11 Q1010 R23/010060 NOSIG RMK QFE749
Conditions at: UUDL (YAROSLAV , RU) observed 0730 UTC 15 July 2019
Temperature: 19.0°C (66°F)
Dewpoint: 11.0°C (52°F) [RH = 60%]
Pressure (altimeter): 29.82 inches Hg (1010.0 mb)
Winds: from the W (270 degrees) at 7 MPH (6 knots; 3.1 m/s)
Visibility: 6 or more miles (10+ km)
Ceiling: at least 12,000 feet AGL
Clouds: few clouds at 4000 feet AGL
Weather: no significant weather observed at this time

METAR text: UUDL 150700Z 25003MPS 210V280 9999 FEW040 19/09 Q1010 R23/010060 NOSIG RMK QFE750
Conditions at: UUDL (YAROSLAV , RU) observed 0700 UTC 15 July 2019
Temperature: 19.0°C (66°F)
Dewpoint: 9.0°C (48°F) [RH = 52%]
Pressure (altimeter): 29.82 inches Hg (1010.0 mb)
Winds: from the WSW (250 degrees) at 7 MPH (6 knots; 3.1 m/s)
Visibility: 6 or more miles (10+ km)
Ceiling: at least 12,000 feet AGL
Clouds: few clouds at 4000 feet AGL
Weather: no significant weather observed at this time

METAR text: UUDL 150630Z 25002MPS 9999 FEW040 18/10 Q1011 R23/010060 NOSIG RMK QFE750
Conditions at: UUDL (YAROSLAV , RU) observed 0630 UTC 15 July 2019
Temperature: 18.0°C (64°F)
Dewpoint: 10.0°C (50°F) [RH = 59%]
Pressure (altimeter): 29.85 inches Hg (1011.0 mb)
Winds: from the WSW (250 degrees) at 5 MPH (4 knots; 2.1 m/s)
Visibility: 6 or more miles (10+ km)
Ceiling: at least 12,000 feet AGL
Clouds: few clouds at 4000 feet AGL
Weather: no significant weather observed at this time

METAR text: UUDL 150600Z 24002MPS CAVOK 18/10 Q1011 R23/010060 NOSIG RMK QFE750
Conditions at: UUDL (YAROSLAV , RU) observed 0600 UTC 15 July 2019
Temperature: 18.0°C (64°F)
Dewpoint: 10.0°C (50°F) [RH = 59%]
Pressure (altimeter): 29.85 inches Hg (1011.0 mb)
Winds: from the WSW (240 degrees) at 5 MPH (4 knots; 2.1 m/s)
Visibility: 6 or more miles (10+ km)
Ceiling: ceiling and visibility are OK
Clouds: unknown
Weather: no significant weather observed at this time

METAR text: UUDL 150530Z 00000MPS CAVOK 17/11 Q1011 R23/010060 NOSIG RMK QFE750
Conditions at: UUDL (YAROSLAV , RU) observed 0530 UTC 15 July 2019
Temperature: 17.0°C (63°F)
Dewpoint: 11.0°C (52°F) [RH = 68%]
Pressure (altimeter): 29.85 inches Hg (1011.0 mb)
Winds: calm
Visibility: 6 or more miles (10+ km)
Ceiling: ceiling and visibility are OK
Clouds: unknown
Weather: no significant weather observed at this time

METAR text: UUDL 150500Z 25001MPS CAVOK 16/11 Q1011 R23/010060 NOSIG RMK QFE750
Conditions at: UUDL (YAROSLAV , RU) observed 0500 UTC 15 July 2019
Temperature: 16.0°C (61°F)
Dewpoint: 11.0°C (52°F) [RH = 72%]
Pressure (altimeter): 29.85 inches Hg (1011.0 mb)
Winds: from the WSW (250 degrees) at 2 MPH (2 knots; 1.0 m/s)
Visibility: 6 or more miles (10+ km)
Ceiling: ceiling and visibility are OK
Clouds: unknown
Weather: no significant weather observed at this time

METAR text: UUDL 150430Z 00000MPS CAVOK 15/11 Q1011 R23/010060 NOSIG RMK QFE750
Conditions at: UUDL (YAROSLAV , RU) observed 0430 UTC 15 July 2019
Temperature: 15.0°C (59°F)
Dewpoint: 11.0°C (52°F) [RH = 77%]
Pressure (altimeter): 29.85 inches Hg (1011.0 mb)
Winds: calm
Visibility: 6 or more miles (10+ km)
Ceiling: ceiling and visibility are OK
Clouds: unknown
Weather: no significant weather observed at this time

METAR text: UUDL 150400Z 26001MPS CAVOK 14/11 Q1011 R23/010060 NOSIG RMK QFE750
Conditions at: UUDL (YAROSLAV , RU) observed 0400 UTC 15 July 2019
Temperature: 14.0°C (57°F)
Dewpoint: 11.0°C (52°F) [RH = 82%]
Pressure (altimeter): 29.85 inches Hg (1011.0 mb)
Winds: from the W (260 degrees) at 2 MPH (2 knots; 1.0 m/s)
Visibility: 6 or more miles (10+ km)
Ceiling: ceiling and visibility are OK
Clouds: unknown
Weather: no significant weather observed at this time

METAR text: UUDL 150330Z 25001MPS CAVOK 13/11 Q1011 R23/010060 NOSIG RMK QFE750
Conditions at: UUDL (YAROSLAV , RU) observed 0330 UTC 15 July 2019
Temperature: 13.0°C (55°F)
Dewpoint: 11.0°C (52°F) [RH = 88%]
Pressure (altimeter): 29.85 inches Hg (1011.0 mb)
Winds: from the WSW (250 degrees) at 2 MPH (2 knots; 1.0 m/s)
Visibility: 6 or more miles (10+ km)
Ceiling: ceiling and visibility are OK
Clouds: unknown
Weather: no significant weather observed at this time

METAR text: UUDL 150300Z 00000MPS CAVOK 11/11 Q1011 R23/010060 NOSIG RMK QFE750
Conditions at: UUDL (YAROSLAV , RU) observed 0300 UTC 15 July 2019
Temperature: 11.0°C (52°F)
Dewpoint: 11.0°C (52°F) [RH = 100%]
Pressure (altimeter): 29.85 inches Hg (1011.0 mb)
Winds: calm
Visibility: 6 or more miles (10+ km)
Ceiling: ceiling and visibility are OK
Clouds: unknown
Weather: no significant weather observed at this time

METAR text: UUDL 150230Z 00000MPS CAVOK 10/10 Q1011 R23/010060 NOSIG RMK QFE750
Conditions at: UUDL (YAROSLAV , RU) observed 0230 UTC 15 July 2019
Temperature: 10.0°C (50°F)
Dewpoint: 10.0°C (50°F) [RH = 100%]
Pressure (altimeter): 29.85 inches Hg (1011.0 mb)
Winds: calm
Visibility: 6 or more miles (10+ km)
Ceiling: ceiling and visibility are OK
Clouds: unknown
Weather: no significant weather observed at this time

METAR text: UUDL 150200Z 00000MPS CAVOK 09/09 Q1011 R23/010060 NOSIG RMK QFE750
Conditions at: UUDL (YAROSLAV , RU) observed 0200 UTC 15 July 2019
Temperature: 9.0°C (48°F)
Dewpoint: 9.0°C (48°F) [RH = 100%]
Pressure (altimeter): 29.85 inches Hg (1011.0 mb)
Winds: calm
Visibility: 6 or more miles (10+ km)
Ceiling: ceiling and visibility are OK
Clouds: unknown
Weather: no significant weather observed at this time

METAR text: UUDL 150130Z 10001MPS CAVOK 08/08 Q1011 R23/010060 NOSIG RMK QFE750
Conditions at: UUDL (YAROSLAV , RU) observed 0130 UTC 15 July 2019
Temperature: 8.0°C (46°F)
Dewpoint: 8.0°C (46°F) [RH = 100%]
Pressure (altimeter): 29.85 inches Hg (1011.0 mb)
Winds: from the E (100 degrees) at 2 MPH (2 knots; 1.0 m/s)
Visibility: 6 or more miles (10+ km)
Ceiling: ceiling and visibility are OK
Clouds: unknown
Weather: no significant weather observed at this time

METAR text: UUDL 150100Z 00000MPS CAVOK 07/07 Q1011 R23/010060 NOSIG RMK QFE750
Conditions at: UUDL (YAROSLAV , RU) observed 0100 UTC 15 July 2019
Temperature: 7.0°C (45°F)
Dewpoint: 7.0°C (45°F) [RH = 100%]
Pressure (altimeter): 29.85 inches Hg (1011.0 mb)
Winds: calm
Visibility: 6 or more miles (10+ km)
Ceiling: ceiling and visibility are OK
Clouds: unknown
Weather: no significant weather observed at this time

Forecast for: UUDL (YAROSLAV , RU)
Text: TAF UUDL 161100Z 1612/1712 10003MPS 9999 BKN040
Forecast period: 1200 UTC 16 July 2019 to 1200 UTC 17 July 2019
Forecast type: FROM: standard forecast or significant change
Winds: from the E (100 degrees) at 7 MPH (6 knots; 3.1 m/s)
Visibility: 6 or more miles 10+ km)
Ceiling: 4000 feet AGL
Clouds: broken clouds at 4000 feet AGL
Weather: no significant weather forecast for this period
Text: TEMPO 1613/1624 4000 -SHRA BKN020CB
Forecast period: 1300 UTC 16 July 2019 to 0000 UTC 17 July 2019
Forecast type: TEMPORARY: The following changes expected for less than half the time period
Visibility: 2.49 miles (4.01 km)
Ceiling: 2000 feet AGL
Clouds: broken clouds at 2000 feet AGL
Weather: -SHRA  (light rain showers)